Time;durP1;ratioP1;P1;durP2;ratioP2;P2;SDS_P1;SDS_P2;PMS_P1;PMS_P2;Temp;Humidity;BMP_temperature;BMP_pressure;BME280_temperature;BME280_humidity;BME280_pressure;Samples;Min_cycle;Max_cycle;Signal;HPM_P1;HPM_P2
2023/05/22 00:01:13;;;;;;;8.63;6.97;;;;;;;15.05;100.00;98279.34;4951810;28;20046;-60
2023/05/22 00:03:39;;;;;;;8.73;6.55;;;;;;;15.20;100.00;98316.00;4979756;28;20082;-60
2023/05/22 00:06:09;;;;;;;10.48;6.68;;;;;;;15.26;100.00;98320.53;4948823;28;20792;-60
2023/05/22 00:08:35;;;;;;;19.15;7.35;;;;;;;15.00;100.00;98286.94;4978933;28;20797;-60
2023/05/22 00:11:12;;;;;;;9.43;6.47;;;;;;;15.24;100.00;98305.97;4953188;28;20098;-59
2023/05/22 00:13:39;;;;;;;10.73;6.97;;;;;;;15.28;100.00;98312.50;4956505;28;20512;-58
2023/05/22 00:16:11;;;;;;;9.73;6.75;;;;;;;15.30;100.00;98316.53;4949147;28;20034;-60
2023/05/22 00:18:43;;;;;;;10.02;6.60;;;;;;;15.05;100.00;98281.16;4967499;28;20034;-60
2023/05/22 00:21:13;;;;;;;9.60;6.85;;;;;;;15.33;100.00;98329.28;4980218;28;20050;-62
2023/05/22 00:23:41;;;;;;;9.45;6.72;;;;;;;15.29;100.00;98325.38;4952630;28;20035;-60
2023/05/22 00:26:22;;;;;;;10.27;7.32;;;;;;;15.31;100.00;98319.97;4951205;28;20031;-60
2023/05/22 00:28:48;;;;;;;16.30;6.65;;;;;;;15.25;100.00;98313.66;4955945;28;20045;-60
2023/05/22 00:31:18;;;;;;;11.05;6.68;;;;;;;15.01;100.00;98287.75;4955683;28;20431;-59
2023/05/22 00:33:46;;;;;;;8.63;6.50;;;;;;;15.17;100.00;98319.00;4949480;28;20030;-60
2023/05/22 00:36:14;;;;;;;12.10;7.15;;;;;;;15.13;100.00;98315.94;4971709;28;20057;-58
2023/05/22 00:38:48;;;;;;;10.15;7.45;;;;;;;14.85;100.00;98273.84;4972811;28;20033;-59
2023/05/22 00:41:16;;;;;;;11.82;7.30;;;;;;;15.05;100.00;98315.19;4989052;28;20042;-59
2023/05/22 00:43:43;;;;;;;9.85;6.88;;;;;;;15.09;100.00;98303.38;4952663;28;20097;-59
2023/05/22 00:46:13;;;;;;;9.80;7.40;;;;;;;15.14;100.00;98306.25;4957503;28;20031;-59
2023/05/22 00:48:38;;;;;;;9.68;6.32;;;;;;;15.18;100.00;98305.69;4957489;28;20387;-58
2023/05/22 00:51:04;;;;;;;9.80;7.05;;;;;;;15.25;100.00;98292.69;4956954;28;20150;-59
2023/05/22 00:53:30;;;;;;;10.48;7.00;;;;;;;15.22;100.00;98297.50;4981986;28;20687;-60
2023/05/22 00:55:56;;;;;;;10.77;6.60;;;;;;;15.22;100.00;98310.59;4975853;28;20466;-58
2023/05/22 00:58:25;;;;;;;10.10;6.55;;;;;;;15.22;100.00;98307.97;4960502;28;20038;-58
2023/05/22 01:00:59;;;;;;;8.80;6.20;;;;;;;15.27;100.00;98311.66;4972819;28;20027;-60
2023/05/22 01:03:27;;;;;;;9.30;6.38;;;;;;;15.31;100.00;98319.97;4962745;28;20133;-59
2023/05/22 01:05:52;;;;;;;11.75;6.50;;;;;;;15.02;100.00;98276.28;4954768;28;20486;-59
2023/05/22 01:08:18;;;;;;;9.57;6.88;;;;;;;15.19;100.00;98315.19;4954085;28;20023;-58
2023/05/22 01:10:56;;;;;;;9.27;6.18;;;;;;;15.11;100.00;98317.09;4982280;28;20050;-59
2023/05/22 01:13:22;;;;;;;9.77;6.90;;;;;;;15.04;100.00;98321.41;4968092;28;20030;-61
2023/05/22 01:15:54;;;;;;;10.25;6.75;;;;;;;15.06;100.00;98329.91;4963002;28;20027;-60
2023/05/22 01:18:32;;;;;;;10.63;7.03;;;;;;;15.00;100.00;98323.59;4985405;28;20114;-60
2023/05/22 01:21:28;;;;;;;9.75;6.72;;;;;;;14.96;100.00;98324.94;4958608;28;20295;-59
2023/05/22 01:24:14;;;;;;;13.65;7.30;;;;;;;14.92;100.00;98311.41;4989277;28;20030;-59
2023/05/22 01:27:18;;;;;;;9.70;6.68;;;;;;;14.92;100.00;98321.88;4973747;28;20126;-60
2023/05/22 01:29:58;;;;;;;10.35;7.20;;;;;;;14.82;100.00;98307.41;4972973;28;20615;-59
2023/05/22 01:32:24;;;;;;;11.98;6.95;;;;;;;14.88;100.00;98314.56;4951312;28;20046;-59
2023/05/22 01:34:55;;;;;;;10.63;6.72;;;;;;;15.00;100.00;98323.59;4972795;28;20055;-59
2023/05/22 01:37:24;;;;;;;9.15;5.72;;;;;;;15.08;100.00;98326.13;4971628;28;20034;-58
2023/05/22 01:39:51;;;;;;;9.75;6.35;;;;;;;14.95;100.00;98315.47;4940518;28;20092;-60
2023/05/22 01:42:20;;;;;;;10.07;6.38;;;;;;;14.98;100.00;98320.34;4937726;28;20035;-60
2023/05/22 01:44:49;;;;;;;10.05;6.32;;;;;;;15.07;100.00;98315.84;4957450;28;20509;-57
2023/05/22 01:47:17;;;;;;;8.83;6.07;;;;;;;15.08;100.00;98314.84;4970946;28;20038;-60
2023/05/22 01:49:46;;;;;;;10.02;5.90;;;;;;;15.24;100.00;98319.91;4986873;28;20561;-58
2023/05/22 01:52:23;;;;;;;11.47;5.87;;;;;;;15.29;100.00;98308.88;4958643;28;20034;-58
2023/05/22 01:54:58;;;;;;;8.93;6.13;;;;;;;15.45;100.00;98318.34;4992802;28;20663;-59
2023/05/22 01:57:29;;;;;;;9.70;6.25;;;;;;;15.49;100.00;98309.91;4984334;28;20708;-59
2023/05/22 02:00:10;;;;;;;9.77;5.60;;;;;;;15.55;100.00;98305.75;4956324;28;20039;-59
2023/05/22 02:02:37;;;;;;;8.43;5.75;;;;;;;15.55;100.00;98297.88;4954087;28;20023;-59
2023/05/22 02:05:23;;;;;;;8.38;5.53;;;;;;;15.60;100.00;98299.97;4952660;28;20061;-60
2023/05/22 02:07:53;;;;;;;8.93;5.60;;;;;;;15.61;100.00;98296.38;4952691;28;20701;-59
2023/05/22 02:10:22;;;;;;;8.63;5.22;;;;;;;15.67;100.00;98287.75;4954926;28;20109;-59
2023/05/22 02:12:47;;;;;;;8.02;5.70;;;;;;;15.67;100.00;98285.13;4950060;28;20469;-61
2023/05/22 02:15:18;;;;;;;9.02;5.82;;;;;;;15.52;100.00;98248.50;4990769;28;20113;-59
2023/05/22 02:17:51;;;;;;;8.30;5.43;;;;;;;15.45;100.00;98247.59;4957645;28;20043;-60
2023/05/22 02:20:20;;;;;;;9.40;5.80;;;;;;;15.70;100.00;98292.63;4955146;28;20307;-61
2023/05/22 02:22:48;;;;;;;10.03;6.37;;;;;;;15.51;100.00;98294.00;4958223;28;20046;-62
2023/05/22 02:25:17;;;;;;;10.30;6.55;;;;;;;15.44;100.00;98287.88;4981590;28;20442;-62
2023/05/22 02:27:55;;;;;;;10.03;6.40;;;;;;;15.33;100.00;98297.03;4976079;28;20113;-61
2023/05/22 02:30:30;;;;;;;10.80;7.43;;;;;;;14.80;100.00;98250.84;4953262;28;20478;-64
2023/05/22 02:32:57;;;;;;;9.57;7.22;;;;;;;14.65;100.00;98250.00;4956074;28;20030;-62
2023/05/22 02:35:25;;;;;;;9.77;7.30;;;;;;;14.76;100.00;98288.00;4956460;28;20046;-59
2023/05/22 02:37:56;;;;;;;10.75;6.55;;;;;;;14.64;100.00;98286.81;4951799;28;20497;-63
2023/05/22 02:40:24;;;;;;;9.98;6.65;;;;;;;14.43;100.00;98251.66;4960102;28;20039;-63
2023/05/22 02:42:57;;;;;;;9.57;7.22;;;;;;;14.52;100.00;98300.31;4956404;28;20041;-60
2023/05/22 02:45:23;;;;;;;10.40;7.70;;;;;;;14.59;100.00;98303.06;4969626;28;20454;-60
2023/05/22 02:47:48;;;;;;;12.05;7.50;;;;;;;14.56;100.00;98313.84;4958881;28;20482;-60
2023/05/22 02:50:14;;;;;;;12.43;7.70;;;;;;;14.53;100.00;98316.81;4956079;28;20474;-61
2023/05/22 02:52:44;;;;;;;10.48;6.82;;;;;;;14.55;100.00;98326.13;4953515;28;20023;-59
2023/05/22 02:55:09;;;;;;;10.30;7.43;;;;;;;14.55;100.00;98328.75;4956939;28;20041;-60
2023/05/22 02:57:35;;;;;;;10.73;7.60;;;;;;;14.58;100.00;98327.59;4973657;28;20030;-62
2023/05/22 03:00:00;;;;;;;10.38;7.53;;;;;;;14.59;100.00;98329.22;4957177;28;20506;-62
2023/05/22 03:02:27;;;;;;;11.10;7.63;;;;;;;14.73;100.00;98345.94;4958985;28;20586;-61
2023/05/22 03:04:57;;;;;;;13.32;8.15;;;;;;;14.61;100.00;98340.31;4953702;28;20030;-60
2023/05/22 03:07:28;;;;;;;11.93;7.03;;;;;;;14.16;100.00;98284.44;4937794;28;20504;-58
2023/05/22 03:09:56;;;;;;;13.73;7.43;;;;;;;14.40;100.00;98322.63;4968753;28;20371;-62
2023/05/22 03:12:31;;;;;;;11.48;7.20;;;;;;;14.46;100.00;98315.91;4954166;28;20038;-60
2023/05/22 03:15:02;;;;;;;10.15;6.93;;;;;;;14.53;100.00;98314.19;4970329;28;20049;-59
2023/05/22 03:17:36;;;;;;;10.07;7.28;;;;;;;14.53;100.00;98311.56;4968208;28;20027;-60
2023/05/22 03:20:09;;;;;;;13.27;7.68;;;;;;;14.58;100.00;98322.34;4956685;28;20042;-60
2023/05/22 03:22:42;;;;;;;12.23;7.55;;;;;;;14.57;100.00;98323.34;4959022;28;20450;-62
2023/05/22 03:25:11;;;;;;;14.18;8.20;;;;;;;14.31;100.00;98302.78;4956764;28;20031;-61
2023/05/22 03:27:45;;;;;;;10.60;7.10;;;;;;;14.53;100.00;98335.97;4956745;28;20111;-61
2023/05/22 03:30:25;;;;;;;11.18;7.72;;;;;;;14.66;100.00;98347.63;4954410;28;20030;-59
2023/05/22 03:32:51;;;;;;;12.23;7.88;;;;;;;14.33;100.00;98319.94;4983722;28;20046;-61
2023/05/22 03:35:24;;;;;;;11.18;7.45;;;;;;;14.41;100.00;98332.94;4954749;28;20111;-62
2023/05/22 03:37:52;;;;;;;9.88;7.50;;;;;;;14.59;100.00;98360.63;4959041;28;20142;-60
2023/05/22 03:40:20;;;;;;;12.15;8.10;;;;;;;14.52;100.00;98360.47;4966542;28;20065;-59
2023/05/22 03:42:48;;;;;;;10.77;7.38;;;;;;;14.38;100.00;98319.38;4976129;28;20035;-61
2023/05/22 03:45:16;;;;;;;9.68;7.32;;;;;;;14.65;100.00;98367.75;4982683;28;20027;-60
2023/05/22 03:47:44;;;;;;;10.18;7.22;;;;;;;14.40;100.00;98333.94;4983345;28;20078;-61
2023/05/22 03:50:15;;;;;;;10.63;7.45;;;;;;;14.48;100.00;98353.16;4953922;28;20034;-59
2023/05/22 03:52:42;;;;;;;11.57;7.75;;;;;;;14.47;100.00;98367.22;4983657;28;20034;-60
2023/05/22 03:55:08;;;;;;;12.27;7.65;;;;;;;14.51;100.00;98371.94;4984067;28;20686;-61
2023/05/22 03:57:33;;;;;;;9.75;7.32;;;;;;;14.51;100.00;98377.19;4969331;28;20039;-60
2023/05/22 04:00:08;;;;;;;12.00;8.30;;;;;;;14.50;100.00;98374.72;4982759;28;20405;-61
2023/05/22 04:02:37;;;;;;;10.82;8.02;;;;;;;14.30;100.00;98350.84;4967413;28;20031;-62
2023/05/22 04:05:06;;;;;;;13.23;8.50;;;;;;;14.45;100.00;98370.00;4952188;28;20028;-61
2023/05/22 04:07:35;;;;;;;13.43;8.60;;;;;;;14.51;100.00;98369.34;4968874;28;20058;-63
2023/05/22 04:10:03;;;;;;;12.23;8.27;;;;;;;14.57;100.00;98363.41;4953902;28;20027;-61
2023/05/22 04:12:28;;;;;;;11.52;8.70;;;;;;;14.43;100.00;98387.69;4960027;28;20045;-60
2023/05/22 04:14:56;;;;;;;13.27;8.48;;;;;;;14.33;100.00;98393.16;4954014;28;20027;-61
2023/05/22 04:17:22;;;;;;;12.98;8.20;;;;;;;14.29;100.00;98385.81;4955413;28;20050;-61
2023/05/22 04:19:49;;;;;;;12.27;7.93;;;;;;;14.31;100.00;98396.91;4954156;28;20039;-61
2023/05/22 04:22:17;;;;;;;12.38;8.88;;;;;;;14.02;100.00;98354.78;4985641;28;20131;-59
2023/05/22 04:24:51;;;;;;;12.48;8.25;;;;;;;14.22;100.00;98397.00;4960781;28;20027;-59
2023/05/22 04:27:21;;;;;;;14.43;8.48;;;;;;;13.82;100.00;98367.47;4964526;28;20454;-59
2023/05/22 04:29:49;;;;;;;14.43;8.80;;;;;;;13.91;100.00;98399.63;4957694;28;20042;-58
2023/05/22 04:32:20;;;;;;;14.13;8.20;;;;;;;13.90;100.00;98408.44;4958316;28;20472;-59
2023/05/22 04:34:49;;;;;;;13.52;9.43;;;;;;;13.82;100.00;98408.47;4957127;28;20062;-59
2023/05/22 04:37:17;;;;;;;12.57;9.00;;;;;;;13.57;100.00;98360.75;4958753;28;20692;-58
2023/05/22 04:39:43;;;;;;;10.77;8.23;;;;;;;13.79;100.00;98403.59;4966236;28;20651;-58
2023/05/22 04:42:10;;;;;;;12.35;8.82;;;;;;;13.80;100.00;98392.97;4957123;28;20049;-59
2023/05/22 04:44:38;;;;;;;11.88;8.27;;;;;;;13.75;100.00;98387.44;4958178;28;20070;-59
2023/05/22 04:47:10;;;;;;;13.35;8.88;;;;;;;13.56;100.00;98351.25;4955739;28;20031;-60
2023/05/22 04:49:46;;;;;;;11.98;7.50;;;;;;;13.71;100.00;98375.69;4962557;28;20486;-59
2023/05/22 04:52:21;;;;;;;13.23;7.78;;;;;;;13.82;100.00;98398.03;4963488;28;20035;-58
2023/05/22 04:54:50;;;;;;;10.98;7.80;;;;;;;13.76;100.00;98394.31;4943746;28;20026;-60
2023/05/22 04:57:16;;;;;;;13.88;9.20;;;;;;;13.68;100.00;98386.50;4955804;28;20043;-59
2023/05/22 04:59:44;;;;;;;14.30;10.15;;;;;;;13.72;100.00;98387.75;4951857;28;20114;-58
2023/05/22 05:02:12;;;;;;;12.70;9.25;;;;;;;13.79;100.00;98393.94;4960494;28;20513;-59
2023/05/22 05:04:37;;;;;;;16.27;12.20;;;;;;;13.79;100.00;98409.63;4972315;28;20054;-59
2023/05/22 05:07:09;;;;;;;17.33;11.88;;;;;;;13.89;100.00;98401.59;4939895;28;20809;-59
2023/05/22 05:09:37;;;;;;;16.15;9.27;;;;;;;13.79;100.00;98383.50;4935618;28;20036;-59
2023/05/22 05:12:07;;;;;;;12.07;8.95;;;;;;;13.95;100.00;98402.72;4972809;28;20440;-60
2023/05/22 05:14:40;;;;;;;12.57;8.52;;;;;;;13.74;100.00;98362.28;4951670;28;20114;-62
2023/05/22 05:17:06;;;;;;;17.20;9.52;;;;;;;13.96;100.00;98392.09;4982592;28;20041;-59
2023/05/22 05:19:37;;;;;;;13.63;10.10;;;;;;;14.03;100.00;98405.25;4954494;28;20027;-58
2023/05/22 05:22:02;;;;;;;13.57;8.73;;;;;;;14.00;100.00;98388.13;4952737;28;20034;-60
2023/05/22 05:24:31;;;;;;;20.00;15.65;;;;;;;14.09;100.00;98388.06;4950243;28;20027;-61
2023/05/22 05:27:02;;;;;;;20.05;18.05;;;;;;;14.07;100.00;98393.47;4967295;28;20037;-60
2023/05/22 05:29:33;;;;;;;13.50;11.70;;;;;;;14.07;100.00;98380.41;4952569;28;20034;-60
2023/05/22 05:32:02;;;;;;;22.13;15.55;;;;;;;14.09;100.00;98383.69;4970852;28;20909;-60
2023/05/22 05:34:31;;;;;;;17.48;12.35;;;;;;;14.03;100.00;98374.69;4960467;28;20035;-59
2023/05/22 05:36:59;;;;;;;16.27;13.00;;;;;;;14.03;100.00;98372.09;4974605;28;20451;-60
2023/05/22 05:39:27;;;;;;;11.32;8.48;;;;;;;14.10;100.00;98368.78;4959340;28;20133;-62
2023/05/22 05:41:53;;;;;;;22.33;19.65;;;;;;;14.15;100.00;98376.94;4952992;28;20043;-63
2023/05/22 05:44:24;;;;;;;17.38;15.20;;;;;;;14.12;100.00;98364.22;4970927;28;20035;-59
2023/05/22 05:46:53;;;;;;;13.70;8.55;;;;;;;14.15;100.00;98372.53;4985637;28;20030;-60
2023/05/22 05:49:28;;;;;;;13.02;8.75;;;;;;;14.18;100.00;98372.19;4954984;28;20506;-60
2023/05/22 05:51:58;;;;;;;12.70;8.52;;;;;;;14.09;100.00;98362.75;4957628;28;20053;-62
2023/05/22 05:54:25;;;;;;;14.90;8.70;;;;;;;14.14;100.00;98367.47;4977456;28;20558;-60
2023/05/22 05:56:55;;;;;;;12.07;8.77;;;;;;;14.15;100.00;98369.91;4961261;28;20486;-61
2023/05/22 05:59:23;;;;;;;20.02;11.32;;;;;;;14.14;100.00;98370.06;4961393;28;20057;-62
2023/05/22 06:01:52;;;;;;;15.15;10.48;;;;;;;13.86;100.00;98310.47;4958423;28;20075;-60
2023/05/22 06:04:19;;;;;;;13.75;9.55;;;;;;;14.18;100.00;98360.88;4972457;28;20041;-63
2023/05/22 06:06:47;;;;;;;17.45;10.50;;;;;;;14.16;100.00;98362.88;4958501;28;20034;-61
2023/05/22 06:09:12;;;;;;;13.60;9.63;;;;;;;13.69;100.00;98285.41;4953753;28;20042;-61
2023/05/22 06:11:41;;;;;;;10.93;8.15;;;;;;;14.12;100.00;98364.22;4954092;28;20188;-60
2023/05/22 06:14:09;;;;;;;12.75;9.30;;;;;;;13.86;100.00;98320.91;4940171;28;20134;-60
2023/05/22 06:16:35;;;;;;;13.73;9.05;;;;;;;14.12;100.00;98375.47;4968596;28;20142;-60
2023/05/22 06:19:00;;;;;;;11.80;8.52;;;;;;;13.93;100.00;98327.06;4958562;28;20485;-61
2023/05/22 06:21:28;;;;;;;12.10;8.40;;;;;;;14.16;100.00;98365.47;4953901;28;20034;-59
2023/05/22 06:23:54;;;;;;;11.63;8.27;;;;;;;14.21;100.00;98366.59;4959356;28;20042;-60
2023/05/22 06:26:24;;;;;;;14.68;8.18;;;;;;;14.23;100.00;98369.03;4952015;28;20795;-59
2023/05/22 06:28:56;;;;;;;11.25;7.75;;;;;;;14.23;100.00;98372.44;4955612;28;20391;-60
2023/05/22 06:31:24;;;;;;;12.63;8.20;;;;;;;14.28;100.00;98366.72;4978343;28;20399;-60
2023/05/22 06:33:55;;;;;;;12.07;7.72;;;;;;;14.30;100.00;98363.94;4969541;28;20176;-60
2023/05/22 06:36:23;;;;;;;11.07;7.85;;;;;;;14.24;100.00;98357.59;4955807;28;20131;-59
2023/05/22 06:38:48;;;;;;;9.32;7.18;;;;;;;14.29;100.00;98359.66;4938013;28;20052;-59
2023/05/22 06:41:16;;;;;;;12.52;8.15;;;;;;;14.27;100.00;98354.59;4957169;28;20550;-59
2023/05/22 06:43:41;;;;;;;13.23;7.80;;;;;;;14.00;100.00;98321.94;4956589;28;20045;-59
2023/05/22 06:46:07;;;;;;;10.70;7.43;;;;;;;14.26;100.00;98344.34;4938352;28;20035;-60
2023/05/22 06:48:39;;;;;;;11.60;9.23;;;;;;;14.25;100.00;98361.00;4953622;28;20088;-60
2023/05/22 06:51:04;;;;;;;20.45;16.10;;;;;;;14.23;100.00;98351.53;4957011;28;20027;-60
2023/05/22 06:53:32;;;;;;;35.25;28.20;;;;;;;14.24;100.00;98347.13;4987205;28;21353;-63
2023/05/22 06:56:12;;;;;;;22.55;15.55;;;;;;;14.28;100.00;98351.03;4970725;28;20038;-62
2023/05/22 06:58:41;;;;;;;22.50;12.23;;;;;;;14.32;100.00;98354.09;4956362;28;20038;-59
2023/05/22 07:01:15;;;;;;;15.27;9.98;;;;;;;14.34;100.00;98358.16;4972018;28;20085;-62
2023/05/22 07:03:40;;;;;;;16.30;10.55;;;;;;;14.38;100.00;98353.38;4960246;28;20065;-59
2023/05/22 07:06:06;;;;;;;11.05;9.02;;;;;;;14.37;100.00;98346.56;4955719;28;20038;-61
2023/05/22 07:08:40;;;;;;;11.60;8.27;;;;;;;14.42;100.00;98362.53;4955758;28;20746;-59
2023/05/22 07:11:08;;;;;;;21.38;19.33;;;;;;;14.39;100.00;98361.06;4952724;28;20103;-61
2023/05/22 07:13:36;;;;;;;14.85;13.35;;;;;;;14.28;100.00;98332.72;4953810;28;20101;-59
2023/05/22 07:16:10;;;;;;;15.93;14.27;;;;;;;14.45;100.00;98353.50;4969464;28;20129;-60
2023/05/22 07:18:39;;;;;;;20.67;16.73;;;;;;;14.43;100.00;98354.50;4960245;28;20027;-59
2023/05/22 07:21:07;;;;;;;20.70;12.43;;;;;;;14.40;100.00;98362.72;4952683;28;20039;-62
2023/05/22 07:23:35;;;;;;;14.20;9.63;;;;;;;14.36;100.00;98352.75;4955182;28;20031;-60
2023/05/22 07:26:01;;;;;;;13.05;8.18;;;;;;;14.44;100.00;98363.16;4953636;28;20054;-59
2023/05/22 07:28:26;;;;;;;13.98;8.75;;;;;;;14.37;100.00;98355.19;4957566;28;20141;-62
2023/05/22 07:30:55;;;;;;;12.82;8.27;;;;;;;14.49;100.00;98352.16;4956428;28;20089;-59
2023/05/22 07:33:30;;;;;;;11.43;7.70;;;;;;;14.53;100.00;98349.03;4974872;28;20031;-61
2023/05/22 07:36:07;;;;;;;11.15;7.65;;;;;;;14.59;100.00;98348.34;4959625;28;20112;-61
2023/05/22 07:38:35;;;;;;;14.00;8.52;;;;;;;14.38;100.00;98317.59;4953890;28;20100;-61
2023/05/22 07:41:03;;;;;;;11.10;8.40;;;;;;;14.63;100.00;98346.19;4957147;28;20534;-59
2023/05/22 07:43:32;;;;;;;11.98;8.55;;;;;;;14.69;100.00;98348.09;4956641;28;20030;-58
2023/05/22 07:46:00;;;;;;;10.15;7.90;;;;;;;14.76;100.00;98345.59;4950576;28;20066;-59
2023/05/22 07:48:26;;;;;;;11.15;8.43;;;;;;;14.67;100.00;98304.78;4985979;28;20034;-61
2023/05/22 07:50:53;;;;;;;10.30;7.30;;;;;;;14.94;100.00;98338.22;4952663;28;20062;-59
2023/05/22 07:53:19;;;;;;;9.68;6.93;;;;;;;15.05;100.00;98336.94;4952713;28;20414;-59
2023/05/22 07:55:44;;;;;;;10.25;7.65;;;;;;;15.14;100.00;98330.63;4952804;28;20053;-61
2023/05/22 07:58:10;;;;;;;10.20;7.47;;;;;;;14.76;100.00;98261.84;4953584;28;20216;-59
2023/05/22 08:00:41;;;;;;;9.20;6.60;;;;;;;15.34;100.00;98332.72;4954814;28;20109;-61
2023/05/22 08:03:07;;;;;;;9.85;7.30;;;;;;;15.47;100.00;98330.25;4953964;28;20034;-59
2023/05/22 08:05:35;;;;;;;9.40;6.30;;;;;;;15.21;100.00;98277.56;4939119;28;20041;-58
2023/05/22 08:08:03;;;;;;;9.80;6.30;;;;;;;15.42;100.00;98313.47;4967909;28;20521;-61
2023/05/22 08:10:32;;;;;;;8.35;6.88;;;;;;;15.41;100.00;98310.03;4946437;28;20035;-57
2023/05/22 08:13:04;;;;;;;10.48;7.60;;;;;;;15.56;100.00;98313.44;4951697;28;20034;-60
2023/05/22 08:15:35;;;;;;;10.18;7.15;;;;;;;15.59;100.00;98312.25;4975463;28;20071;-59
2023/05/22 08:18:03;;;;;;;8.55;6.35;;;;;;;15.72;100.00;98322.88;4940934;28;20043;-59
2023/05/22 08:20:29;;;;;;;10.98;7.05;;;;;;;15.83;100.00;98320.81;4979354;28;20042;-58
2023/05/22 08:22:56;;;;;;;7.57;5.82;;;;;;;15.93;100.00;98313.44;4978658;28;20027;-61
2023/05/22 08:25:34;;;;;;;9.52;6.20;;;;;;;15.73;100.00;98269.47;4939655;28;20030;-58
2023/05/22 08:28:05;;;;;;;8.85;6.57;;;;;;;16.03;100.00;98310.53;4959229;28;20034;-61
2023/05/22 08:30:34;;;;;;;9.32;6.30;;;;;;;16.13;100.00;98309.19;4977123;28;20038;-61
2023/05/22 08:33:03;;;;;;;10.45;6.57;;;;;;;16.18;100.00;98310.47;4920560;28;20084;-60
2023/05/22 08:35:30;;;;;;;10.70;6.55;;;;;;;16.27;100.00;98298.84;4942936;28;20058;-59
2023/05/22 08:37:56;;;;;;;9.18;6.40;;;;;;;16.41;100.00;98299.75;4947538;28;20051;-61
2023/05/22 08:40:26;;;;;;;9.77;6.32;;;;;;;16.51;100.00;98266.94;4942879;28;20105;-59
2023/05/22 08:42:56;;;;;;;8.52;6.68;;;;;;;17.01;100.00;98293.16;4941085;28;20077;-60
2023/05/22 08:45:21;;;;;;;9.88;6.78;;;;;;;17.14;100.00;98299.47;4958946;28;20077;-61
2023/05/22 08:47:52;;;;;;;10.32;6.57;;;;;;;17.51;100.00;98286.91;4960288;28;20030;-59
2023/05/22 08:50:18;;;;;;;11.15;6.80;;;;;;;17.78;100.00;98251.78;4962342;28;20074;-60
2023/05/22 08:52:50;;;;;;;8.70;6.35;;;;;;;18.68;100.00;98292.72;4965360;28;20074;-59
2023/05/22 08:55:18;;;;;;;8.45;6.40;;;;;;;18.91;100.00;98252.78;4950749;28;20042;-60
2023/05/22 08:57:53;;;;;;;8.17;5.47;;;;;;;19.48;100.00;98266.97;4944407;28;20031;-59
2023/05/22 09:00:23;;;;;;;7.78;4.90;;;;;;;19.37;100.00;98283.44;4947352;28;20831;-60
2023/05/22 09:02:51;;;;;;;6.78;4.90;;;;;;;19.64;100.00;98288.56;4956315;28;20125;-58
2023/05/22 09:05:25;;;;;;;8.15;4.93;;;;;;;18.98;100.00;98217.50;4943162;28;20041;-59
2023/05/22 09:08:03;;;;;;;7.65;4.93;;;;;;;19.67;100.00;98261.78;4947244;28;20038;-60
2023/05/22 09:10:34;;;;;;;8.93;5.43;;;;;;;19.47;100.00;98278.50;4982867;28;20058;-60
2023/05/22 09:13:08;;;;;;;7.60;5.40;;;;;;;19.63;100.00;98274.59;4949833;28;20416;-58
2023/05/22 09:15:37;;;;;;;7.65;5.70;;;;;;;19.55;100.00;98278.28;4984612;28;20122;-60
2023/05/22 09:18:13;;;;;;;8.52;5.68;;;;;;;19.75;100.00;98280.84;4966233;28;20034;-59
2023/05/22 09:20:44;;;;;;;7.85;5.32;;;;;;;19.93;100.00;98287.22;4982507;28;20022;-58
2023/05/22 09:23:16;;;;;;;7.22;5.00;;;;;;;19.85;100.00;98280.38;4951374;28;21809;-58
2023/05/22 09:25:42;;;;;;;7.22;5.00;;;;;;;19.59;100.00;98274.19;4951870;28;20031;-59
2023/05/22 09:28:10;;;;;;;7.50;4.65;;;;;;;20.33;100.00;98271.94;4937537;28;20525;-61
2023/05/22 09:30:40;;;;;;;6.82;5.00;;;;;;;20.26;100.00;98236.84;4981126;28;20046;-60
2023/05/22 09:33:23;;;;;;;7.50;5.32;;;;;;;21.09;100.00;98271.81;4952020;28;20042;-58
2023/05/22 09:36:00;;;;;;;7.78;4.88;;;;;;;20.88;100.00;98273.88;4957737;28;20165;-59
2023/05/22 09:38:28;;;;;;;7.80;4.70;;;;;;;20.32;100.00;98265.00;4955538;28;20039;-60
2023/05/22 09:40:59;;;;;;;7.30;4.68;;;;;;;20.37;100.00;98272.31;4946836;28;20938;-58
2023/05/22 09:43:36;;;;;;;7.28;4.88;;;;;;;19.99;100.00;98273.19;4955041;28;20031;-59
2023/05/22 09:46:12;;;;;;;7.80;5.07;;;;;;;19.61;100.00;98263.44;4982980;28;20062;-59
2023/05/22 09:48:40;;;;;;;7.80;4.80;;;;;;;19.29;100.00;98265.22;4978127;28;20034;-58
2023/05/22 09:51:07;;;;;;;6.93;4.70;;;;;;;19.08;100.00;98261.84;4967320;28;20030;-58
2023/05/22 09:53:38;;;;;;;9.30;5.10;;;;;;;18.94;100.00;98255.00;4935170;28;20062;-59
2023/05/22 09:56:12;;;;;;;9.05;5.30;;;;;;;18.89;100.00;98266.19;4931741;28;20091;-60
2023/05/22 09:58:45;;;;;;;7.93;5.22;;;;;;;18.86;100.00;98257.88;4942871;28;20366;-58
2023/05/22 10:01:15;;;;;;;8.07;5.20;;;;;;;18.96;100.00;98263.50;4977653;28;20581;-58
2023/05/22 10:03:42;;;;;;;;;;;;;;;19.13;100.00;98256.78;4958851;28;20132;-60
2023/05/22 10:06:11;;;;;;;7.78;4.93;;;;;;;19.24;100.00;98262.41;4978191;28;19964;-60
2023/05/22 10:08:41;;;;;;;6.60;4.47;;;;;;;19.11;100.00;98253.53;4943666;28;20042;-60
2023/05/22 10:11:12;;;;;;;6.75;4.07;;;;;;;19.17;100.00;98254.53;4954908;28;20031;-60
2023/05/22 10:13:46;;;;;;;6.65;3.75;;;;;;;18.95;96.76;98223.19;4945490;28;21064;-60
2023/05/22 10:16:17;;;;;;;7.25;3.70;;;;;;;19.28;93.02;98250.44;4974677;28;20594;-60
2023/05/22 10:18:48;;;;;;;6.15;4.00;;;;;;;19.37;96.65;98247.34;4965155;28;20722;-58
2023/05/22 10:21:18;;;;;;;6.15;3.65;;;;;;;19.51;92.83;98245.47;4972821;28;20073;-59
2023/05/22 10:23:47;;;;;;;5.68;3.67;;;;;;;19.73;92.47;98238.06;4944537;28;20042;-59
2023/05/22 10:26:15;;;;;;;6.80;4.30;;;;;;;19.92;96.08;98241.56;4949873;28;20470;-59
2023/05/22 10:28:53;;;;;;;6.93;4.35;;;;;;;20.03;100.00;98232.16;4955412;28;20665;-59
2023/05/22 10:31:31;;;;;;;6.28;4.45;;;;;;;20.08;100.00;98234.13;4984471;28;20027;-60
2023/05/22 10:34:12;;;;;;;9.97;4.83;;;;;;;19.93;100.00;98237.91;4981885;28;20509;-58
2023/05/22 10:37:10;;;;;;;7.10;4.63;;;;;;;19.95;100.00;98233.22;4943779;28;20777;-59
2023/05/22 10:39:50;;;;;;;7.55;4.70;;;;;;;19.60;100.00;98209.06;4952633;28;20096;-58
2023/05/22 10:42:16;;;;;;;6.60;4.50;;;;;;;19.73;100.00;98238.06;4956082;28;20241;-58
2023/05/22 10:44:42;;;;;;;6.75;4.45;;;;;;;19.67;100.00;98233.59;4952195;28;20030;-59
2023/05/22 10:47:12;;;;;;;7.45;4.68;;;;;;;19.63;100.00;98232.41;4943260;28;20070;-59
2023/05/22 10:49:50;;;;;;;7.28;4.65;;;;;;;19.72;99.03;98228.47;4959096;28;20058;-58
2023/05/22 10:52:20;;;;;;;6.60;4.70;;;;;;;19.74;100.00;98231.75;4947200;28;20023;-59
2023/05/22 10:54:52;;;;;;;6.25;4.38;;;;;;;19.67;100.00;98230.94;4952225;28;20035;-59
2023/05/22 10:57:41;;;;;;;6.50;4.47;;;;;;;19.70;100.00;98216.53;4919431;28;20532;-60
2023/05/22 11:00:09;;;;;;;7.13;4.57;;;;;;;19.84;100.00;98226.00;4947170;28;20026;-59
2023/05/22 11:02:46;;;;;;;5.88;4.20;;;;;;;19.71;100.00;98216.34;4978014;28;20042;-60
2023/05/22 11:05:24;;;;;;;7.18;4.53;;;;;;;19.68;100.00;98221.22;4947370;28;20053;-60
2023/05/22 11:07:49;;;;;;;7.35;4.57;;;;;;;19.66;100.00;98210.88;4948575;28;20773;-60
2023/05/22 11:10:25;;;;;;;8.18;4.60;;;;;;;19.90;100.00;98208.53;4949451;28;20042;-59
2023/05/22 11:13:08;;;;;;;7.30;4.57;;;;;;;19.90;100.00;98185.56;4983103;28;20509;-59
2023/05/22 11:15:33;;;;;;;6.00;3.88;;;;;;;20.16;100.00;98203.00;4937695;28;20030;-59
2023/05/22 11:18:04;;;;;;;6.78;4.03;;;;;;;20.33;98.08;98203.28;4950513;28;20037;-58
2023/05/22 11:20:38;;;;;;;6.53;4.15;;;;;;;20.46;99.68;98202.34;4957572;28;20402;-59
2023/05/22 11:23:10;;;;;;;6.70;4.40;;;;;;;20.28;95.62;98158.25;4968668;28;20385;-60
2023/05/22 11:25:46;;;;;;;7.80;4.40;;;;;;;20.59;96.85;98185.56;4981779;28;20465;-61
2023/05/22 11:28:11;;;;;;;7.05;4.30;;;;;;;20.42;91.35;98155.47;4982821;28;20035;-58
2023/05/22 11:30:44;;;;;;;6.15;4.32;;;;;;;20.71;96.10;98186.44;4935592;28;20061;-60
2023/05/22 11:33:16;;;;;;;7.50;4.20;;;;;;;20.95;89.66;98186.59;4955142;28;20130;-60
2023/05/22 11:35:44;;;;;;;6.93;4.20;;;;;;;20.92;85.92;98182.56;4946680;28;20062;-60